createdAt,value
2018-12-27T00:02:04.093Z,7.50
2018-12-27T00:04:32.333Z,6.97
2018-12-27T00:07:00.567Z,7.40
2018-12-27T00:09:28.778Z,7.30
2018-12-27T00:11:56.998Z,7.13
2018-12-27T00:14:25.201Z,6.97
2018-12-27T00:16:53.419Z,6.90
2018-12-27T00:19:21.703Z,7.37
2018-12-27T00:21:49.918Z,6.37
2018-12-27T00:24:18.162Z,7.50
2018-12-27T00:26:46.371Z,7.27
2018-12-27T00:29:14.601Z,7.80
2018-12-27T00:31:43.117Z,7.40
2018-12-27T00:34:11.703Z,7.50
2018-12-27T00:36:40.246Z,7.20
2018-12-27T00:39:08.828Z,6.83
2018-12-27T00:41:37.372Z,7.17
2018-12-27T00:44:07.615Z,6.73
2018-12-27T00:46:36.174Z,7.00
2018-12-27T00:49:04.745Z,6.40
2018-12-27T00:51:33.275Z,7.83
2018-12-27T00:54:01.847Z,6.70
2018-12-27T00:56:30.404Z,7.67
2018-12-27T00:58:58.951Z,7.80
2018-12-27T01:01:27.508Z,8.40
2018-12-27T01:03:56.047Z,7.67
2018-12-27T01:06:24.603Z,7.80
2018-12-27T01:08:53.149Z,8.10
2018-12-27T01:11:21.719Z,8.40
2018-12-27T01:13:50.260Z,7.73
2018-12-27T01:16:18.830Z,7.50
2018-12-27T01:18:47.383Z,6.90
2018-12-27T01:21:15.943Z,7.87
2018-12-27T01:23:44.490Z,7.43
2018-12-27T01:26:13.025Z,7.20
2018-12-27T01:28:41.600Z,7.30
2018-12-27T01:31:10.140Z,7.47
2018-12-27T01:33:38.669Z,7.40
2018-12-27T01:36:07.230Z,7.73
2018-12-27T01:38:35.813Z,8.00
2018-12-27T01:41:04.361Z,7.13
2018-12-27T01:43:32.925Z,7.60
2018-12-27T01:46:01.493Z,7.90
2018-12-27T01:48:30.063Z,7.97
2018-12-27T01:50:58.632Z,8.57
2018-12-27T01:53:27.172Z,7.90
2018-12-27T01:55:55.736Z,8.73
2018-12-27T01:58:24.299Z,6.80
2018-12-27T02:00:52.869Z,7.93
2018-12-27T02:03:26.483Z,7.27
2018-12-27T02:05:51.695Z,8.20
2018-12-27T02:08:20.250Z,7.90
2018-12-27T02:10:48.776Z,7.57
2018-12-27T02:13:17.343Z,6.90
2018-12-27T02:15:45.882Z,7.03
2018-12-27T02:18:14.454Z,7.23
2018-12-27T02:20:42.992Z,7.03
2018-12-27T02:23:11.552Z,7.17
2018-12-27T02:25:40.098Z,7.60
2018-12-27T02:28:08.646Z,6.77
2018-12-27T02:30:37.215Z,8.33
2018-12-27T02:33:05.750Z,7.40
2018-12-27T02:35:34.306Z,7.27
2018-12-27T02:38:02.870Z,6.93
2018-12-27T02:40:31.404Z,7.03
2018-12-27T02:42:59.962Z,7.67
2018-12-27T02:45:28.513Z,7.33
2018-12-27T02:47:57.068Z,8.43
2018-12-27T02:50:25.615Z,7.23
2018-12-27T02:52:54.145Z,7.37
2018-12-27T02:55:22.712Z,8.97
2018-12-27T02:57:51.256Z,8.47
2018-12-27T03:00:19.830Z,7.10
2018-12-27T03:02:48.358Z,7.33
2018-12-27T03:05:16.908Z,6.53
2018-12-27T03:07:45.462Z,8.07
2018-12-27T03:10:14.025Z,6.73
2018-12-27T03:12:42.568Z,7.53
2018-12-27T03:15:11.123Z,6.67
2018-12-27T03:17:39.669Z,6.70
2018-12-27T03:20:08.197Z,7.63
2018-12-27T03:22:36.729Z,7.20
2018-12-27T03:25:05.285Z,7.23
2018-12-27T03:27:33.806Z,6.80
2018-12-27T03:30:02.385Z,7.63
2018-12-27T03:32:30.901Z,7.50
2018-12-27T03:34:59.451Z,7.00
2018-12-27T03:37:28.026Z,7.37
2018-12-27T03:39:56.586Z,6.37
2018-12-27T03:42:25.142Z,6.77
2018-12-27T03:44:53.708Z,6.83
2018-12-27T03:47:22.236Z,6.43
2018-12-27T03:49:50.800Z,6.67
2018-12-27T03:52:19.443Z,7.33
2018-12-27T03:54:47.974Z,7.23
2018-12-27T03:57:16.522Z,7.03
2018-12-27T03:59:45.087Z,7.53
2018-12-27T04:02:13.623Z,6.50
2018-12-27T04:04:42.192Z,7.70
2018-12-27T04:07:10.715Z,6.70
2018-12-27T04:09:39.271Z,7.03
2018-12-27T04:12:07.831Z,7.00
2018-12-27T04:14:36.388Z,6.97
2018-12-27T04:17:04.588Z,6.70
2018-12-27T04:19:32.809Z,7.00
2018-12-27T04:22:01.010Z,7.33
2018-12-27T04:24:29.290Z,7.37
2018-12-27T04:26:57.488Z,7.33
2018-12-27T04:29:25.713Z,6.43
2018-12-27T04:31:54.470Z,6.87
2018-12-27T04:34:23.042Z,6.67
2018-12-27T04:36:51.527Z,7.33
2018-12-27T04:39:19.743Z,7.47
2018-12-27T04:41:48.138Z,7.20
2018-12-27T04:44:16.341Z,7.17
2018-12-27T04:46:44.570Z,6.40
2018-12-27T04:49:12.768Z,8.03
2018-12-27T04:51:40.976Z,6.87
2018-12-27T04:54:09.170Z,6.67
2018-12-27T04:56:37.384Z,6.60
2018-12-27T04:59:05.576Z,6.63
2018-12-27T05:01:33.815Z,8.07
2018-12-27T05:04:02.018Z,6.90
2018-12-27T05:06:30.241Z,6.67
2018-12-27T05:08:58.435Z,6.87
2018-12-27T05:11:26.635Z,7.83
2018-12-27T05:13:54.873Z,6.90
2018-12-27T05:16:23.066Z,6.90
2018-12-27T05:18:51.276Z,6.60
2018-12-27T05:21:19.484Z,7.33
2018-12-27T05:23:47.691Z,6.97
2018-12-27T05:26:15.898Z,7.03
2018-12-27T05:28:44.088Z,6.47
2018-12-27T05:31:12.328Z,6.30
2018-12-27T05:33:40.552Z,8.07
2018-12-27T05:36:08.773Z,7.13
2018-12-27T05:38:36.962Z,6.87
2018-12-27T05:41:05.185Z,6.43
2018-12-27T05:43:33.388Z,8.27
2018-12-27T05:46:01.614Z,6.53
2018-12-27T05:48:29.814Z,7.00
2018-12-27T05:50:58.050Z,6.50
2018-12-27T05:53:26.267Z,7.03
2018-12-27T05:55:54.500Z,7.50
2018-12-27T05:58:22.708Z,6.40
2018-12-27T06:00:50.932Z,6.47
2018-12-27T06:03:19.155Z,6.47
2018-12-27T06:05:47.369Z,7.90
2018-12-27T06:08:15.557Z,6.63
2018-12-27T06:10:43.789Z,6.83
2018-12-27T06:13:11.973Z,6.93
2018-12-27T06:15:40.194Z,7.47
2018-12-27T06:18:08.396Z,6.50
2018-12-27T06:20:36.628Z,7.50
2018-12-27T06:23:04.834Z,6.90
2018-12-27T06:25:33.069Z,7.07
2018-12-27T06:28:01.270Z,7.40
2018-12-27T06:30:29.488Z,6.70
2018-12-27T06:32:57.694Z,7.83
2018-12-27T06:35:25.922Z,7.20
2018-12-27T06:37:54.114Z,8.40
2018-12-27T06:40:22.332Z,8.40
2018-12-27T06:42:50.544Z,6.87
2018-12-27T06:45:18.762Z,8.40
2018-12-27T06:47:46.988Z,8.13
2018-12-27T06:50:15.176Z,8.70
2018-12-27T06:52:43.374Z,7.77
2018-12-27T06:55:11.595Z,6.80
2018-12-27T06:57:39.877Z,9.17
2018-12-27T07:00:08.362Z,7.50
2018-12-27T07:02:36.568Z,7.13
2018-12-27T07:05:05.179Z,7.40
2018-12-27T07:07:33.481Z,7.47
2018-12-27T07:10:01.695Z,7.50
2018-12-27T07:12:29.909Z,7.57
2018-12-27T07:14:58.109Z,6.60
2018-12-27T07:17:26.327Z,7.87
2018-12-27T07:19:54.542Z,7.40
2018-12-27T07:22:22.780Z,7.50
2018-12-27T07:24:50.974Z,8.23
2018-12-27T07:27:19.188Z,7.57
2018-12-27T07:29:47.406Z,7.57
2018-12-27T07:32:15.628Z,8.23
2018-12-27T07:34:43.834Z,7.70
2018-12-27T07:37:12.068Z,8.67
2018-12-27T07:39:40.269Z,8.00
2018-12-27T07:42:08.485Z,8.73
2018-12-27T07:44:36.676Z,7.63
2018-12-27T07:47:05.734Z,7.77
2018-12-27T07:49:34.126Z,8.60
2018-12-27T07:52:02.302Z,7.30
2018-12-27T07:54:30.537Z,8.80
2018-12-27T07:56:58.770Z,7.20
2018-12-27T07:59:26.974Z,8.10
2018-12-27T08:01:55.219Z,7.53
2018-12-27T08:04:23.428Z,7.57
2018-12-27T08:06:51.657Z,8.23
2018-12-27T08:09:19.866Z,8.43
2018-12-27T08:11:48.069Z,7.47
2018-12-27T08:14:16.305Z,7.67
2018-12-27T08:16:44.499Z,9.37
2018-12-27T08:19:12.730Z,8.03
2018-12-27T08:21:40.948Z,9.53
2018-12-27T08:24:09.179Z,8.07
2018-12-27T08:26:37.420Z,8.37
2018-12-27T08:29:05.643Z,8.93
2018-12-27T08:31:33.872Z,7.47
2018-12-27T08:34:02.094Z,8.40
2018-12-27T08:36:30.315Z,7.60
2018-12-27T08:38:58.542Z,8.17
2018-12-27T08:41:26.745Z,7.80
2018-12-27T08:43:54.977Z,8.03
2018-12-27T08:46:23.186Z,8.83
2018-12-27T08:48:51.419Z,8.00
2018-12-27T08:51:19.620Z,8.60
2018-12-27T08:53:47.837Z,8.13
2018-12-27T08:56:16.066Z,8.27
2018-12-27T08:58:44.287Z,8.47
2018-12-27T09:01:12.585Z,7.50
2018-12-27T09:03:40.826Z,8.00
2018-12-27T09:06:09.018Z,8.70
2018-12-27T09:08:37.236Z,8.83
2018-12-27T09:11:05.465Z,7.70
2018-12-27T09:13:33.693Z,7.90
2018-12-27T09:16:01.891Z,8.83
2018-12-27T09:18:30.123Z,9.97
2018-12-27T09:20:58.335Z,8.13
2018-12-27T09:23:26.589Z,8.70
2018-12-27T09:25:54.779Z,9.67
2018-12-27T09:28:23.001Z,9.47
2018-12-27T09:30:51.221Z,8.27
2018-12-27T09:33:19.426Z,9.47
2018-12-27T09:35:47.664Z,9.97
2018-12-27T09:38:15.865Z,9.90
2018-12-27T09:40:44.067Z,9.17
2018-12-27T09:50:34.917Z,9.17
2018-12-27T09:53:03.105Z,9.63
2018-12-27T09:55:31.329Z,9.20
2018-12-27T12:25:32.943Z,9.30
2018-12-27T12:28:01.177Z,9.23
2018-12-27T12:30:29.416Z,11.63
2018-12-27T12:32:57.614Z,10.17
2018-12-27T12:35:25.878Z,10.13
2018-12-27T12:37:54.079Z,10.30
2018-12-27T12:40:22.303Z,9.50
2018-12-27T12:42:50.500Z,10.73
2018-12-27T12:45:18.724Z,9.53
2018-12-27T12:47:46.933Z,10.63
2018-12-27T12:50:15.138Z,9.53
2018-12-27T12:52:43.359Z,10.77
2018-12-27T12:55:11.588Z,9.87
2018-12-27T12:57:39.809Z,11.17
2018-12-27T13:00:09.663Z,9.70
2018-12-27T13:02:37.875Z,9.57
2018-12-27T13:05:06.358Z,9.63
2018-12-27T13:07:35.695Z,10.77
2018-12-27T13:10:04.627Z,10.50
2018-12-27T13:12:32.832Z,9.50
2018-12-27T13:15:01.136Z,9.57
2018-12-27T13:17:29.334Z,10.83
2018-12-27T13:19:57.577Z,8.47
2018-12-27T13:22:25.792Z,9.30
2018-12-27T13:24:54.021Z,10.70
2018-12-27T13:27:22.233Z,9.63
2018-12-27T13:29:50.457Z,9.37
2018-12-27T13:32:18.657Z,9.07
2018-12-27T13:34:46.863Z,9.50
2018-12-27T13:37:15.073Z,9.27
2018-12-27T13:39:43.292Z,9.77
2018-12-27T13:42:11.503Z,9.20
2018-12-27T13:44:39.723Z,10.23
2018-12-27T13:47:07.954Z,9.27
2018-12-27T13:49:36.182Z,9.33
2018-12-27T13:52:04.423Z,9.17
2018-12-27T13:54:32.625Z,8.50
2018-12-27T13:57:01.716Z,8.77
2018-12-27T13:59:29.914Z,8.90
2018-12-27T14:01:58.142Z,9.53
2018-12-27T14:04:26.331Z,9.27
2018-12-27T14:06:54.565Z,8.83
2018-12-27T14:09:22.759Z,9.67
2018-12-27T14:11:50.997Z,9.03
2018-12-27T14:14:19.191Z,9.13
2018-12-27T14:16:49.039Z,8.93
2018-12-27T14:19:17.263Z,8.00
2018-12-27T14:21:45.465Z,10.03
2018-12-27T14:24:13.703Z,10.10
2018-12-27T14:26:41.906Z,7.30
2018-12-27T14:29:10.137Z,9.57
2018-12-27T14:31:38.347Z,9.10
2018-12-27T14:34:06.555Z,9.40
2018-12-27T14:36:39.724Z,8.23
2018-12-27T14:39:06.575Z,8.17
2018-12-27T14:41:34.781Z,8.27
2018-12-27T14:44:03.017Z,8.47
2018-12-27T14:46:31.242Z,8.97
2018-12-27T14:48:59.436Z,9.37
2018-12-27T14:51:27.672Z,8.63
2018-12-27T14:53:55.861Z,9.90
2018-12-27T14:56:24.094Z,8.13
2018-12-27T14:58:52.291Z,8.93
2018-12-27T15:01:20.509Z,9.30
2018-12-27T15:03:48.713Z,8.20
2018-12-27T15:06:16.943Z,9.03
2018-12-27T15:08:45.140Z,8.80
2018-12-27T15:11:14.295Z,8.27
2018-12-27T15:13:42.640Z,8.63
2018-12-27T15:16:10.850Z,7.37
2018-12-27T15:18:39.046Z,7.30
2018-12-27T15:21:07.259Z,8.03
2018-12-27T15:23:35.461Z,9.00
2018-12-27T15:26:03.698Z,8.10
2018-12-27T15:28:31.924Z,9.30
2018-12-27T15:31:00.144Z,8.70
2018-12-27T15:33:28.359Z,10.40
2018-12-27T15:35:56.588Z,9.20
2018-12-27T15:38:24.835Z,8.90
2018-12-27T15:40:53.027Z,8.93
2018-12-27T15:43:21.254Z,11.30
2018-12-27T15:45:49.486Z,8.80
2018-12-27T15:48:17.675Z,9.47
2018-12-27T15:50:45.896Z,11.33
2018-12-27T15:53:14.142Z,11.63
2018-12-27T15:55:42.376Z,12.60
2018-12-27T15:58:10.560Z,9.37
2018-12-27T16:00:38.792Z,9.53
2018-12-27T16:03:07.012Z,8.53
2018-12-27T16:05:35.220Z,10.27
2018-12-27T16:08:03.519Z,10.03
2018-12-27T16:10:31.766Z,8.93
2018-12-27T16:12:59.978Z,9.53
2018-12-27T16:15:28.200Z,11.10
2018-12-27T16:30:14.096Z,10.10
2018-12-27T16:32:42.320Z,10.60
2018-12-27T16:35:10.565Z,10.70
2018-12-27T16:37:38.760Z,14.23
2018-12-27T16:40:08.341Z,11.37
2018-12-27T16:42:36.551Z,14.53
2018-12-27T16:45:05.424Z,12.40
2018-12-27T16:47:33.626Z,9.93
2018-12-27T16:50:01.831Z,12.17
2018-12-27T16:52:30.071Z,9.77
2018-12-27T16:54:58.282Z,13.20
2018-12-27T16:57:26.542Z,12.20
2018-12-27T16:59:54.754Z,9.73
2018-12-27T17:02:22.986Z,10.70
2018-12-27T17:04:51.218Z,10.17
2018-12-27T17:07:19.420Z,11.70
2018-12-27T17:09:47.664Z,12.10
2018-12-27T17:12:15.899Z,9.60
2018-12-27T17:22:06.648Z,11.27
2018-12-27T17:24:34.876Z,13.93
2018-12-27T17:27:03.080Z,10.50
2018-12-27T17:29:31.311Z,12.57
2018-12-27T17:31:59.514Z,12.27
2018-12-27T17:34:27.749Z,15.27
2018-12-27T17:36:56.000Z,12.87
2018-12-27T17:39:24.196Z,9.93
2018-12-27T17:41:52.491Z,11.27
2018-12-27T17:44:20.698Z,11.40
2018-12-27T17:46:48.935Z,10.20
2018-12-27T17:49:17.144Z,14.33
2018-12-27T17:51:45.375Z,10.13
2018-12-27T17:54:13.592Z,11.73
2018-12-27T17:56:41.783Z,11.17
2018-12-27T17:59:10.016Z,11.40
2018-12-27T18:01:38.220Z,11.63
2018-12-27T18:04:06.428Z,11.23
2018-12-27T18:06:34.647Z,12.83
2018-12-27T18:09:04.329Z,11.70
2018-12-27T18:11:32.542Z,12.57
2018-12-27T18:14:00.743Z,10.43
2018-12-27T18:16:28.969Z,12.67
2018-12-27T18:18:57.202Z,11.03
2018-12-27T18:21:25.428Z,10.67
2018-12-27T18:23:53.655Z,11.10
2018-12-27T18:26:21.884Z,12.67
2018-12-27T18:28:50.120Z,11.80
2018-12-27T18:31:18.326Z,10.67
2018-12-27T18:33:46.542Z,10.53
2018-12-27T18:36:14.745Z,12.03
2018-12-27T18:38:42.978Z,11.17
2018-12-27T18:41:11.188Z,12.03
2018-12-27T18:43:39.398Z,14.30
2018-12-27T18:46:07.642Z,18.73
2018-12-27T18:51:03.442Z,21.80
2018-12-27T18:53:31.668Z,22.03
2018-12-27T19:00:54.948Z,14.40
2018-12-27T19:08:18.255Z,13.03
2018-12-27T19:10:51.756Z,17.50
2018-12-27T19:13:19.656Z,16.07
2018-12-27T19:15:49.058Z,29.43
2018-12-27T19:18:23.517Z,35.77
2018-12-27T19:20:54.488Z,34.50
2018-12-27T19:23:23.151Z,33.80
2018-12-27T19:25:51.382Z,33.67
2018-12-27T19:28:19.622Z,32.73
2018-12-27T19:30:47.826Z,33.23
2018-12-27T19:33:16.070Z,27.20
2018-12-27T19:35:44.324Z,31.77
2018-12-27T19:38:12.533Z,47.63
2018-12-27T19:40:40.734Z,75.27
2018-12-27T19:43:08.978Z,70.50
2018-12-27T19:45:37.205Z,79.67
2018-12-27T19:48:05.445Z,70.17
2018-12-27T19:50:33.669Z,63.10
2018-12-27T19:53:01.890Z,60.60
2018-12-27T19:55:30.090Z,58.97
2018-12-27T19:57:58.317Z,65.03
2018-12-27T20:00:26.537Z,57.43
2018-12-27T20:02:54.764Z,52.13
2018-12-27T20:05:22.977Z,45.80
2018-12-27T20:07:51.200Z,45.43
2018-12-27T20:10:19.434Z,42.13
2018-12-27T20:12:47.715Z,43.20
2018-12-27T20:15:15.964Z,46.17
2018-12-27T20:17:44.159Z,36.97
2018-12-27T20:20:12.400Z,40.70
2018-12-27T20:22:40.636Z,45.17
2018-12-27T20:25:08.860Z,33.83
2018-12-27T20:27:37.068Z,36.73
2018-12-27T20:30:07.527Z,31.67
2018-12-27T20:32:35.758Z,30.60
2018-12-27T20:35:04.668Z,32.27
2018-12-27T20:37:32.882Z,28.47
2018-12-27T20:40:01.109Z,30.43
2018-12-27T20:42:29.360Z,29.43
2018-12-27T20:44:57.583Z,27.97
2018-12-27T20:47:25.797Z,27.60
2018-12-27T20:49:53.999Z,28.83
2018-12-27T20:52:22.235Z,26.23
2018-12-27T20:54:50.436Z,26.97
2018-12-27T20:57:18.686Z,24.40
2018-12-27T20:59:46.905Z,24.60
2018-12-27T21:02:15.161Z,23.30
2018-12-27T21:04:43.411Z,21.87
2018-12-27T21:07:11.727Z,21.23
2018-12-27T21:09:39.864Z,23.00
2018-12-27T21:12:08.107Z,20.37
2018-12-27T21:14:36.332Z,19.57
2018-12-27T21:17:04.557Z,20.57
2018-12-27T21:19:32.782Z,19.67
2018-12-27T21:22:00.993Z,21.47
2018-12-27T21:24:29.246Z,19.37
2018-12-27T21:26:57.453Z,17.63
2018-12-27T21:29:25.693Z,20.03
2018-12-27T21:31:53.907Z,17.27
2018-12-27T21:34:22.121Z,19.23
2018-12-27T21:36:50.377Z,17.83
2018-12-27T21:39:18.591Z,17.67
2018-12-27T21:41:46.811Z,17.80
2018-12-27T21:44:15.058Z,15.83
2018-12-27T21:46:43.263Z,17.70
2018-12-27T21:49:11.500Z,16.87
2018-12-27T21:51:39.735Z,15.93
2018-12-27T21:54:07.941Z,16.83
2018-12-27T21:56:36.185Z,16.57
2018-12-27T21:59:04.408Z,16.83
2018-12-27T22:01:32.641Z,16.90
2018-12-27T22:04:00.861Z,16.87
2018-12-27T22:06:29.106Z,17.17
2018-12-27T22:11:24.848Z,17.00
2018-12-27T22:13:53.092Z,14.47
2018-12-27T22:16:21.300Z,14.03
2018-12-27T22:18:49.515Z,16.43
2018-12-27T22:21:17.733Z,14.77
2018-12-27T22:23:46.233Z,14.87
2018-12-27T22:36:04.661Z,16.67
2018-12-27T23:00:44.133Z,14.37
2018-12-27T23:03:12.382Z,15.07
2018-12-27T23:05:40.610Z,14.70
2018-12-27T23:08:08.825Z,15.20
2018-12-27T23:10:37.077Z,15.10
2018-12-27T23:57:20.873Z,14.17
